sensor_id;sensor_type;location;lat;lon;timestamp;P1;durP1;ratioP1;P2;durP2;ratioP2
75691;SDS011;64307;52.508;6.090;2022-10-15T00:01:05;34.47;;;18.80;;
75691;SDS011;64307;52.508;6.090;2022-10-15T00:03:50;36.75;;;19.10;;
75691;SDS011;64307;52.508;6.090;2022-10-15T00:06:17;35.63;;;19.20;;
75691;SDS011;64307;52.508;6.090;2022-10-15T00:08:44;32.45;;;19.25;;
75691;SDS011;64307;52.508;6.090;2022-10-15T00:11:14;33.78;;;19.05;;
75691;SDS011;64307;52.508;6.090;2022-10-15T00:13:43;33.03;;;19.27;;
75691;SDS011;64307;52.508;6.090;2022-10-15T00:16:14;33.05;;;19.63;;
75691;SDS011;64307;52.508;6.090;2022-10-15T00:18:43;34.83;;;19.30;;
75691;SDS011;64307;52.508;6.090;2022-10-15T00:21:10;35.88;;;20.40;;
75691;SDS011;64307;52.508;6.090;2022-10-15T00:23:37;34.72;;;19.65;;
75691;SDS011;64307;52.508;6.090;2022-10-15T00:26:07;43.15;;;21.80;;
75691;SDS011;64307;52.508;6.090;2022-10-15T00:28:34;36.28;;;19.77;;
75691;SDS011;64307;52.508;6.090;2022-10-15T00:31:01;37.47;;;20.00;;
75691;SDS011;64307;52.508;6.090;2022-10-15T00:33:27;34.95;;;19.73;;
75691;SDS011;64307;52.508;6.090;2022-10-15T00:36:03;38.30;;;20.17;;
75691;SDS011;64307;52.508;6.090;2022-10-15T00:38:30;40.45;;;20.73;;
75691;SDS011;64307;52.508;6.090;2022-10-15T00:40:56;38.88;;;21.02;;
75691;SDS011;64307;52.508;6.090;2022-10-15T00:46:36;36.38;;;19.52;;
75691;SDS011;64307;52.508;6.090;2022-10-15T00:54:27;39.97;;;20.48;;
75691;SDS011;64307;52.508;6.090;2022-10-15T00:56:58;39.15;;;20.65;;
75691;SDS011;64307;52.508;6.090;2022-10-15T00:59:24;35.72;;;19.80;;
75691;SDS011;64307;52.508;6.090;2022-10-15T01:01:53;35.05;;;16.92;;
75691;SDS011;64307;52.508;6.090;2022-10-15T01:04:19;34.55;;;19.30;;
75691;SDS011;64307;52.508;6.090;2022-10-15T01:06:46;34.65;;;19.85;;
75691;SDS011;64307;52.508;6.090;2022-10-15T01:09:11;31.88;;;18.00;;
75691;SDS011;64307;52.508;6.090;2022-10-15T01:14:22;34.10;;;18.95;;
75691;SDS011;64307;52.508;6.090;2022-10-15T01:26:06;31.60;;;18.02;;
75691;SDS011;64307;52.508;6.090;2022-10-15T01:31:53;34.90;;;17.95;;
75691;SDS011;64307;52.508;6.090;2022-10-15T01:34:32;32.50;;;17.85;;
75691;SDS011;64307;52.508;6.090;2022-10-15T01:39:33;31.55;;;18.52;;
75691;SDS011;64307;52.508;6.090;2022-10-15T01:42:06;30.52;;;17.83;;
75691;SDS011;64307;52.508;6.090;2022-10-15T01:44:46;31.48;;;17.88;;
75691;SDS011;64307;52.508;6.090;2022-10-15T01:49:46;27.58;;;14.82;;
75691;SDS011;64307;52.508;6.090;2022-10-15T01:52:15;36.78;;;17.52;;
75691;SDS011;64307;52.508;6.090;2022-10-15T01:54:45;31.48;;;17.60;;
75691;SDS011;64307;52.508;6.090;2022-10-15T01:57:13;28.95;;;16.63;;
75691;SDS011;64307;52.508;6.090;2022-10-15T01:59:40;31.52;;;17.08;;
75691;SDS011;64307;52.508;6.090;2022-10-15T02:02:07;32.92;;;18.60;;
75691;SDS011;64307;52.508;6.090;2022-10-15T02:04:32;33.03;;;18.47;;
75691;SDS011;64307;52.508;6.090;2022-10-15T02:09:39;34.53;;;18.73;;
75691;SDS011;64307;52.508;6.090;2022-10-15T02:12:24;36.65;;;19.30;;
75691;SDS011;64307;52.508;6.090;2022-10-15T02:15:24;38.33;;;20.73;;
75691;SDS011;64307;52.508;6.090;2022-10-15T02:18:03;37.13;;;19.15;;
75691;SDS011;64307;52.508;6.090;2022-10-15T02:21:15;39.72;;;20.20;;
75691;SDS011;64307;52.508;6.090;2022-10-15T02:23:31;46.85;;;22.27;;
75691;SDS011;64307;52.508;6.090;2022-10-15T02:26:07;42.80;;;20.63;;
75691;SDS011;64307;52.508;6.090;2022-10-15T02:28:35;44.50;;;22.58;;
75691;SDS011;64307;52.508;6.090;2022-10-15T02:31:04;47.05;;;20.98;;
75691;SDS011;64307;52.508;6.090;2022-10-15T02:33:33;45.00;;;22.02;;
75691;SDS011;64307;52.508;6.090;2022-10-15T02:36:01;45.13;;;22.35;;
75691;SDS011;64307;52.508;6.090;2022-10-15T02:38:27;43.45;;;21.52;;
75691;SDS011;64307;52.508;6.090;2022-10-15T02:40:56;47.47;;;23.65;;
75691;SDS011;64307;52.508;6.090;2022-10-15T02:45:47;42.67;;;20.63;;
75691;SDS011;64307;52.508;6.090;2022-10-15T02:48:13;45.75;;;22.17;;
75691;SDS011;64307;52.508;6.090;2022-10-15T02:53:04;46.10;;;22.17;;
75691;SDS011;64307;52.508;6.090;2022-10-15T02:57:55;45.83;;;21.77;;
75691;SDS011;64307;52.508;6.090;2022-10-15T03:00:20;48.47;;;22.55;;
75691;SDS011;64307;52.508;6.090;2022-10-15T03:05:11;48.20;;;22.15;;
75691;SDS011;64307;52.508;6.090;2022-10-15T03:10:02;49.23;;;22.90;;
75691;SDS011;64307;52.508;6.090;2022-10-15T03:12:28;53.13;;;22.17;;
75691;SDS011;64307;52.508;6.090;2022-10-15T03:17:18;50.37;;;23.50;;
75691;SDS011;64307;52.508;6.090;2022-10-15T03:22:09;54.03;;;23.90;;
75691;SDS011;64307;52.508;6.090;2022-10-15T03:26:59;48.65;;;23.92;;
75691;SDS011;64307;52.508;6.090;2022-10-15T03:31:51;52.90;;;24.43;;
75691;SDS011;64307;52.508;6.090;2022-10-15T03:34:17;49.00;;;24.10;;
75691;SDS011;64307;52.508;6.090;2022-10-15T03:39:08;48.63;;;23.25;;
75691;SDS011;64307;52.508;6.090;2022-10-15T03:44:02;52.67;;;22.93;;
75691;SDS011;64307;52.508;6.090;2022-10-15T03:46:28;48.70;;;24.83;;
75691;SDS011;64307;52.508;6.090;2022-10-15T03:51:19;57.03;;;25.40;;
75691;SDS011;64307;52.508;6.090;2022-10-15T03:53:45;62.50;;;26.17;;
75691;SDS011;64307;52.508;6.090;2022-10-15T03:58:36;59.72;;;25.42;;
75691;SDS011;64307;52.508;6.090;2022-10-15T04:03:31;58.53;;;25.27;;
75691;SDS011;64307;52.508;6.090;2022-10-15T04:08:22;59.63;;;26.03;;
75691;SDS011;64307;52.508;6.090;2022-10-15T04:13:14;67.72;;;27.77;;
75691;SDS011;64307;52.508;6.090;2022-10-15T04:18:05;68.17;;;27.57;;
75691;SDS011;64307;52.508;6.090;2022-10-15T04:22:56;63.50;;;26.17;;
75691;SDS011;64307;52.508;6.090;2022-10-15T04:27:46;65.47;;;24.70;;
75691;SDS011;64307;52.508;6.090;2022-10-15T04:32:37;69.43;;;26.00;;
75691;SDS011;64307;52.508;6.090;2022-10-15T04:35:02;72.93;;;26.20;;
75691;SDS011;64307;52.508;6.090;2022-10-15T04:37:33;73.28;;;27.80;;
75691;SDS011;64307;52.508;6.090;2022-10-15T04:39:58;73.75;;;26.52;;
75691;SDS011;64307;52.508;6.090;2022-10-15T04:42:24;70.28;;;25.88;;
75691;SDS011;64307;52.508;6.090;2022-10-15T04:44:49;72.05;;;28.80;;
75691;SDS011;64307;52.508;6.090;2022-10-15T04:49:39;58.23;;;25.60;;
75691;SDS011;64307;52.508;6.090;2022-10-15T04:54:30;65.30;;;27.23;;
75691;SDS011;64307;52.508;6.090;2022-10-15T04:56:57;54.88;;;25.10;;
75691;SDS011;64307;52.508;6.090;2022-10-15T05:01:48;59.13;;;24.80;;
75691;SDS011;64307;52.508;6.090;2022-10-15T05:06:38;59.80;;;25.63;;
75691;SDS011;64307;52.508;6.090;2022-10-15T05:09:03;70.07;;;27.03;;
75691;SDS011;64307;52.508;6.090;2022-10-15T05:11:29;69.13;;;28.57;;
75691;SDS011;64307;52.508;6.090;2022-10-15T05:13:55;67.15;;;28.85;;
75691;SDS011;64307;52.508;6.090;2022-10-15T05:16:25;74.40;;;30.38;;
75691;SDS011;64307;52.508;6.090;2022-10-15T05:18:57;71.13;;;28.67;;
75691;SDS011;64307;52.508;6.090;2022-10-15T05:21:29;69.53;;;28.25;;
75691;SDS011;64307;52.508;6.090;2022-10-15T05:23:55;69.15;;;29.88;;
75691;SDS011;64307;52.508;6.090;2022-10-15T05:26:22;67.78;;;28.65;;
75691;SDS011;64307;52.508;6.090;2022-10-15T05:28:49;63.72;;;27.30;;
75691;SDS011;64307;52.508;6.090;2022-10-15T05:31:16;68.85;;;27.40;;
75691;SDS011;64307;52.508;6.090;2022-10-15T05:33:47;62.72;;;28.10;;
75691;SDS011;64307;52.508;6.090;2022-10-15T05:36:14;61.85;;;26.35;;
75691;SDS011;64307;52.508;6.090;2022-10-15T05:38:48;65.07;;;27.20;;
75691;SDS011;64307;52.508;6.090;2022-10-15T05:41:18;63.05;;;27.67;;
75691;SDS011;64307;52.508;6.090;2022-10-15T05:46:12;65.45;;;27.48;;
75691;SDS011;64307;52.508;6.090;2022-10-15T05:48:38;68.47;;;25.45;;
75691;SDS011;64307;52.508;6.090;2022-10-15T05:53:30;65.20;;;27.65;;
75691;SDS011;64307;52.508;6.090;2022-10-15T05:58:22;72.97;;;27.23;;
75691;SDS011;64307;52.508;6.090;2022-10-15T06:00:52;68.05;;;28.75;;
75691;SDS011;64307;52.508;6.090;2022-10-15T06:03:21;67.55;;;29.45;;
75691;SDS011;64307;52.508;6.090;2022-10-15T06:08:12;67.23;;;28.70;;
75691;SDS011;64307;52.508;6.090;2022-10-15T06:13:04;62.92;;;25.55;;
75691;SDS011;64307;52.508;6.090;2022-10-15T06:17:55;60.35;;;26.50;;
75691;SDS011;64307;52.508;6.090;2022-10-15T06:22:45;66.77;;;28.90;;
75691;SDS011;64307;52.508;6.090;2022-10-15T06:27:36;64.50;;;28.57;;
75691;SDS011;64307;52.508;6.090;2022-10-15T06:32:26;64.83;;;28.63;;
75691;SDS011;64307;52.508;6.090;2022-10-15T06:37:18;68.53;;;29.07;;
75691;SDS011;64307;52.508;6.090;2022-10-15T06:39:43;66.10;;;29.23;;
75691;SDS011;64307;52.508;6.090;2022-10-15T06:42:10;69.50;;;30.58;;
75691;SDS011;64307;52.508;6.090;2022-10-15T06:47:01;64.93;;;28.70;;
75691;SDS011;64307;52.508;6.090;2022-10-15T06:51:51;67.97;;;29.93;;
75691;SDS011;64307;52.508;6.090;2022-10-15T06:56:42;65.45;;;28.15;;
75691;SDS011;64307;52.508;6.090;2022-10-15T06:59:07;65.57;;;27.07;;
75691;SDS011;64307;52.508;6.090;2022-10-15T07:03:58;67.97;;;30.50;;
75691;SDS011;64307;52.508;6.090;2022-10-15T07:08:49;67.68;;;29.48;;
75691;SDS011;64307;52.508;6.090;2022-10-15T07:11:15;73.75;;;31.05;;
75691;SDS011;64307;52.508;6.090;2022-10-15T07:13:42;76.00;;;31.73;;
75691;SDS011;64307;52.508;6.090;2022-10-15T07:16:08;73.13;;;31.77;;
75691;SDS011;64307;52.508;6.090;2022-10-15T07:18:35;81.88;;;32.67;;
75691;SDS011;64307;52.508;6.090;2022-10-15T07:21:03;72.00;;;32.15;;
75691;SDS011;64307;52.508;6.090;2022-10-15T07:23:29;74.18;;;30.35;;
75691;SDS011;64307;52.508;6.090;2022-10-15T07:25:58;81.50;;;33.97;;
75691;SDS011;64307;52.508;6.090;2022-10-15T07:28:24;81.35;;;32.75;;
75691;SDS011;64307;52.508;6.090;2022-10-15T07:30:50;80.85;;;32.67;;
75691;SDS011;64307;52.508;6.090;2022-10-15T07:33:16;78.97;;;32.05;;
75691;SDS011;64307;52.508;6.090;2022-10-15T07:38:06;74.03;;;31.30;;
75691;SDS011;64307;52.508;6.090;2022-10-15T07:40:32;73.30;;;29.97;;
75691;SDS011;64307;52.508;6.090;2022-10-15T07:42:58;73.00;;;31.65;;
75691;SDS011;64307;52.508;6.090;2022-10-15T07:45:24;72.95;;;32.03;;
75691;SDS011;64307;52.508;6.090;2022-10-15T07:47:50;68.95;;;30.70;;
75691;SDS011;64307;52.508;6.090;2022-10-15T07:50:16;66.15;;;29.25;;
75691;SDS011;64307;52.508;6.090;2022-10-15T07:52:42;64.03;;;26.08;;
75691;SDS011;64307;52.508;6.090;2022-10-15T07:55:07;61.30;;;27.57;;
75691;SDS011;64307;52.508;6.090;2022-10-15T07:57:34;70.18;;;28.10;;
75691;SDS011;64307;52.508;6.090;2022-10-15T07:59:59;63.47;;;27.25;;
75691;SDS011;64307;52.508;6.090;2022-10-15T08:02:24;62.17;;;27.37;;
75691;SDS011;64307;52.508;6.090;2022-10-15T08:04:51;59.60;;;26.90;;
75691;SDS011;64307;52.508;6.090;2022-10-15T08:07:16;57.00;;;25.63;;
75691;SDS011;64307;52.508;6.090;2022-10-15T08:09:42;63.35;;;25.40;;
75691;SDS011;64307;52.508;6.090;2022-10-15T08:12:07;54.05;;;23.75;;
75691;SDS011;64307;52.508;6.090;2022-10-15T08:14:33;47.42;;;20.80;;
75691;SDS011;64307;52.508;6.090;2022-10-15T08:17:00;43.75;;;21.38;;
75691;SDS011;64307;52.508;6.090;2022-10-15T08:19:30;48.80;;;22.98;;
75691;SDS011;64307;52.508;6.090;2022-10-15T08:21:55;45.50;;;21.05;;
75691;SDS011;64307;52.508;6.090;2022-10-15T08:24:21;45.67;;;22.45;;
75691;SDS011;64307;52.508;6.090;2022-10-15T08:26:47;43.58;;;19.98;;
75691;SDS011;64307;52.508;6.090;2022-10-15T08:29:13;38.95;;;19.70;;
75691;SDS011;64307;52.508;6.090;2022-10-15T08:31:39;36.53;;;17.98;;
75691;SDS011;64307;52.508;6.090;2022-10-15T08:34:05;33.80;;;16.90;;
75691;SDS011;64307;52.508;6.090;2022-10-15T08:36:31;33.65;;;17.55;;
75691;SDS011;64307;52.508;6.090;2022-10-15T08:38:57;31.55;;;17.05;;
75691;SDS011;64307;52.508;6.090;2022-10-15T08:41:34;33.22;;;17.08;;
75691;SDS011;64307;52.508;6.090;2022-10-15T08:44:03;36.47;;;17.73;;
75691;SDS011;64307;52.508;6.090;2022-10-15T08:46:36;30.65;;;16.88;;
75691;SDS011;64307;52.508;6.090;2022-10-15T08:49:06;31.35;;;16.85;;
75691;SDS011;64307;52.508;6.090;2022-10-15T08:51:50;34.33;;;17.50;;
75691;SDS011;64307;52.508;6.090;2022-10-15T08:54:20;31.85;;;17.30;;
75691;SDS011;64307;52.508;6.090;2022-10-15T08:56:47;31.10;;;17.20;;
75691;SDS011;64307;52.508;6.090;2022-10-15T09:04:25;29.25;;;15.60;;
75691;SDS011;64307;52.508;6.090;2022-10-15T09:07:01;26.95;;;14.40;;
75691;SDS011;64307;52.508;6.090;2022-10-15T09:14:36;25.80;;;14.85;;
75691;SDS011;64307;52.508;6.090;2022-10-15T09:17:19;23.13;;;12.68;;
75691;SDS011;64307;52.508;6.090;2022-10-15T09:19:48;26.58;;;14.13;;
75691;SDS011;64307;52.508;6.090;2022-10-15T09:22:16;25.33;;;13.02;;
75691;SDS011;64307;52.508;6.090;2022-10-15T09:24:43;24.95;;;13.25;;
75691;SDS011;64307;52.508;6.090;2022-10-15T09:27:11;23.85;;;12.93;;
75691;SDS011;64307;52.508;6.090;2022-10-15T09:30:03;23.98;;;13.65;;
75691;SDS011;64307;52.508;6.090;2022-10-15T09:35:38;24.42;;;13.25;;
75691;SDS011;64307;52.508;6.090;2022-10-15T09:40:52;26.23;;;14.30;;
75691;SDS011;64307;52.508;6.090;2022-10-15T09:43:23;24.50;;;13.75;;
75691;SDS011;64307;52.508;6.090;2022-10-15T09:48:20;22.42;;;12.95;;
75691;SDS011;64307;52.508;6.090;2022-10-15T09:50:49;25.55;;;14.27;;
75691;SDS011;64307;52.508;6.090;2022-10-15T09:54:23;25.20;;;13.60;;
75691;SDS011;64307;52.508;6.090;2022-10-15T09:56:59;26.48;;;14.82;;
75691;SDS011;64307;52.508;6.090;2022-10-15T09:59:20;30.33;;;16.00;;
75691;SDS011;64307;52.508;6.090;2022-10-15T10:01:54;32.78;;;20.85;;
75691;SDS011;64307;52.508;6.090;2022-10-15T10:04:41;24.30;;;13.45;;
75691;SDS011;64307;52.508;6.090;2022-10-15T10:07:06;23.20;;;13.85;;
75691;SDS011;64307;52.508;6.090;2022-10-15T10:09:48;22.42;;;12.77;;
75691;SDS011;64307;52.508;6.090;2022-10-15T10:12:19;21.42;;;12.38;;
75691;SDS011;64307;52.508;6.090;2022-10-15T10:14:54;20.08;;;12.55;;
75691;SDS011;64307;52.508;6.090;2022-10-15T10:17:23;19.90;;;11.10;;
75691;SDS011;64307;52.508;6.090;2022-10-15T10:20:08;21.30;;;12.48;;
75691;SDS011;64307;52.508;6.090;2022-10-15T10:22:45;19.05;;;12.02;;
75691;SDS011;64307;52.508;6.090;2022-10-15T10:27:50;18.55;;;10.80;;
75691;SDS011;64307;52.508;6.090;2022-10-15T10:30:16;16.60;;;9.82;;
75691;SDS011;64307;52.508;6.090;2022-10-15T10:32:42;15.88;;;9.57;;
75691;SDS011;64307;52.508;6.090;2022-10-15T10:35:15;13.60;;;8.55;;
75691;SDS011;64307;52.508;6.090;2022-10-15T10:37:46;15.02;;;9.60;;
75691;SDS011;64307;52.508;6.090;2022-10-15T10:40:23;14.88;;;9.68;;
75691;SDS011;64307;52.508;6.090;2022-10-15T10:43:08;16.95;;;10.75;;
75691;SDS011;64307;52.508;6.090;2022-10-15T10:48:27;16.75;;;10.95;;
75691;SDS011;64307;52.508;6.090;2022-10-15T10:51:02;19.95;;;11.20;;
75691;SDS011;64307;52.508;6.090;2022-10-15T10:53:33;19.45;;;10.63;;
75691;SDS011;64307;52.508;6.090;2022-10-15T10:56:01;20.25;;;11.35;;
75691;SDS011;64307;52.508;6.090;2022-10-15T10:58:31;18.40;;;10.88;;
75691;SDS011;64307;52.508;6.090;2022-10-15T11:00:57;17.27;;;11.02;;
75691;SDS011;64307;52.508;6.090;2022-10-15T11:12:21;19.65;;;11.32;;
75691;SDS011;64307;52.508;6.090;2022-10-15T11:23:23;19.17;;;11.25;;
75691;SDS011;64307;52.508;6.090;2022-10-15T11:26:05;18.67;;;10.48;;
75691;SDS011;64307;52.508;6.090;2022-10-15T11:31:45;17.45;;;10.25;;
75691;SDS011;64307;52.508;6.090;2022-10-15T11:37:11;16.23;;;9.70;;
75691;SDS011;64307;52.508;6.090;2022-10-15T11:42:37;17.98;;;11.02;;
75691;SDS011;64307;52.508;6.090;2022-10-15T11:58:33;19.35;;;10.68;;
75691;SDS011;64307;52.508;6.090;2022-10-15T12:01:16;19.95;;;11.57;;
75691;SDS011;64307;52.508;6.090;2022-10-15T12:03:55;16.52;;;9.82;;
75691;SDS011;64307;52.508;6.090;2022-10-15T12:06:25;17.60;;;9.80;;
75691;SDS011;64307;52.508;6.090;2022-10-15T12:08:55;15.38;;;9.00;;
75691;SDS011;64307;52.508;6.090;2022-10-15T12:21:37;17.60;;;8.53;;
75691;SDS011;64307;52.508;6.090;2022-10-15T12:24:05;16.25;;;9.55;;
75691;SDS011;64307;52.508;6.090;2022-10-15T12:29:44;13.80;;;8.60;;
75691;SDS011;64307;52.508;6.090;2022-10-15T12:32:43;13.02;;;8.05;;
75691;SDS011;64307;52.508;6.090;2022-10-15T12:37:40;14.93;;;8.32;;
75691;SDS011;64307;52.508;6.090;2022-10-15T12:42:49;14.15;;;7.85;;
75691;SDS011;64307;52.508;6.090;2022-10-15T12:45:19;16.05;;;8.88;;
75691;SDS011;64307;52.508;6.090;2022-10-15T12:50:18;13.10;;;7.88;;
75691;SDS011;64307;52.508;6.090;2022-10-15T12:52:55;13.73;;;8.25;;
75691;SDS011;64307;52.508;6.090;2022-10-15T12:58:03;10.20;;;6.50;;
75691;SDS011;64307;52.508;6.090;2022-10-15T13:00:30;12.55;;;7.25;;
75691;SDS011;64307;52.508;6.090;2022-10-15T13:03:08;22.40;;;12.85;;
75691;SDS011;64307;52.508;6.090;2022-10-15T13:05:54;9.60;;;6.43;;
75691;SDS011;64307;52.508;6.090;2022-10-15T13:08:21;9.85;;;6.47;;
75691;SDS011;64307;52.508;6.090;2022-10-15T13:10:50;9.48;;;6.55;;
75691;SDS011;64307;52.508;6.090;2022-10-15T13:13:20;9.18;;;6.40;;
75691;SDS011;64307;52.508;6.090;2022-10-15T13:15:49;8.10;;;5.78;;
75691;SDS011;64307;52.508;6.090;2022-10-15T13:18:20;8.25;;;6.07;;
75691;SDS011;64307;52.508;6.090;2022-10-15T13:20:47;9.38;;;5.10;;
75691;SDS011;64307;52.508;6.090;2022-10-15T13:23:19;10.57;;;6.22;;
75691;SDS011;64307;52.508;6.090;2022-10-15T13:25:48;9.63;;;5.97;;
75691;SDS011;64307;52.508;6.090;2022-10-15T13:28:33;10.02;;;6.60;;
75691;SDS011;64307;52.508;6.090;2022-10-15T13:31:11;8.88;;;5.30;;
75691;SDS011;64307;52.508;6.090;2022-10-15T13:33:40;8.50;;;5.60;;
75691;SDS011;64307;52.508;6.090;2022-10-15T13:36:08;8.68;;;5.00;;
75691;SDS011;64307;52.508;6.090;2022-10-15T13:38:41;8.80;;;4.93;;
75691;SDS011;64307;52.508;6.090;2022-10-15T13:41:06;6.78;;;4.53;;
75691;SDS011;64307;52.508;6.090;2022-10-15T13:43:32;7.35;;;4.38;;
75691;SDS011;64307;52.508;6.090;2022-10-15T13:45:58;7.22;;;4.00;;
75691;SDS011;64307;52.508;6.090;2022-10-15T13:48:28;5.57;;;4.05;;
75691;SDS011;64307;52.508;6.090;2022-10-15T13:50:56;5.72;;;4.05;;
75691;SDS011;64307;52.508;6.090;2022-10-15T13:55:58;8.68;;;5.93;;
75691;SDS011;64307;52.508;6.090;2022-10-15T13:58:27;6.97;;;4.07;;
75691;SDS011;64307;52.508;6.090;2022-10-15T14:01:13;7.80;;;2.88;;
75691;SDS011;64307;52.508;6.090;2022-10-15T14:04:40;4.70;;;3.10;;
75691;SDS011;64307;52.508;6.090;2022-10-15T14:06:58;4.63;;;3.40;;
75691;SDS011;64307;52.508;6.090;2022-10-15T14:09:28;5.03;;;3.20;;
75691;SDS011;64307;52.508;6.090;2022-10-15T14:11:54;4.65;;;3.08;;
75691;SDS011;64307;52.508;6.090;2022-10-15T14:14:37;7.55;;;3.35;;
75691;SDS011;64307;52.508;6.090;2022-10-15T14:17:24;6.18;;;5.25;;
75691;SDS011;64307;52.508;6.090;2022-10-15T14:19:54;5.25;;;3.40;;
75691;SDS011;64307;52.508;6.090;2022-10-15T14:22:26;6.68;;;5.40;;
75691;SDS011;64307;52.508;6.090;2022-10-15T14:24:52;6.53;;;5.20;;
75691;SDS011;64307;52.508;6.090;2022-10-15T14:27:23;6.35;;;4.03;;
75691;SDS011;64307;52.508;6.090;2022-10-15T14:29:54;6.38;;;3.45;;
75691;SDS011;64307;52.508;6.090;2022-10-15T14:32:25;6.93;;;5.43;;
75691;SDS011;64307;52.508;6.090;2022-10-15T14:34:55;8.00;;;6.13;;
75691;SDS011;64307;52.508;6.090;2022-10-15T14:37:29;7.15;;;4.88;;
75691;SDS011;64307;52.508;6.090;2022-10-15T14:42:33;6.00;;;3.63;;
75691;SDS011;64307;52.508;6.090;2022-10-15T14:47:46;5.68;;;3.80;;
75691;SDS011;64307;52.508;6.090;2022-10-15T14:50:15;6.60;;;4.82;;
75691;SDS011;64307;52.508;6.090;2022-10-15T14:52:49;8.32;;;7.20;;
75691;SDS011;64307;52.508;6.090;2022-10-15T14:55:26;5.50;;;4.15;;
75691;SDS011;64307;52.508;6.090;2022-10-15T14:57:58;5.75;;;4.85;;
75691;SDS011;64307;52.508;6.090;2022-10-15T15:00:31;6.28;;;4.35;;
75691;SDS011;64307;52.508;6.090;2022-10-15T15:02:58;7.68;;;5.90;;
75691;SDS011;64307;52.508;6.090;2022-10-15T15:05:27;4.82;;;3.35;;
75691;SDS011;64307;52.508;6.090;2022-10-15T15:07:53;8.85;;;4.25;;
75691;SDS011;64307;52.508;6.090;2022-10-15T15:10:21;6.05;;;3.90;;
75691;SDS011;64307;52.508;6.090;2022-10-15T15:12:49;7.50;;;4.60;;
75691;SDS011;64307;52.508;6.090;2022-10-15T15:15:18;6.05;;;3.47;;
75691;SDS011;64307;52.508;6.090;2022-10-15T15:17:46;6.20;;;4.90;;
75691;SDS011;64307;52.508;6.090;2022-10-15T15:20:13;7.13;;;4.68;;
75691;SDS011;64307;52.508;6.090;2022-10-15T15:22:39;6.10;;;3.78;;
75691;SDS011;64307;52.508;6.090;2022-10-15T15:25:12;5.88;;;4.20;;
75691;SDS011;64307;52.508;6.090;2022-10-15T15:27:40;6.10;;;4.88;;
75691;SDS011;64307;52.508;6.090;2022-10-15T15:30:06;8.98;;;4.30;;
75691;SDS011;64307;52.508;6.090;2022-10-15T15:32:39;5.90;;;4.30;;
75691;SDS011;64307;52.508;6.090;2022-10-15T15:35:09;6.90;;;4.60;;
75691;SDS011;64307;52.508;6.090;2022-10-15T15:37:45;6.70;;;3.75;;
75691;SDS011;64307;52.508;6.090;2022-10-15T15:40:11;5.55;;;3.90;;
75691;SDS011;64307;52.508;6.090;2022-10-15T15:42:36;6.25;;;3.92;;
75691;SDS011;64307;52.508;6.090;2022-10-15T15:45:01;5.38;;;4.05;;
75691;SDS011;64307;52.508;6.090;2022-10-15T15:47:27;5.75;;;3.50;;
75691;SDS011;64307;52.508;6.090;2022-10-15T15:49:52;5.97;;;4.00;;
75691;SDS011;64307;52.508;6.090;2022-10-15T15:52:18;5.80;;;4.25;;
75691;SDS011;64307;52.508;6.090;2022-10-15T15:54:43;5.03;;;3.83;;
75691;SDS011;64307;52.508;6.090;2022-10-15T15:57:10;4.40;;;3.45;;
75691;SDS011;64307;52.508;6.090;2022-10-15T15:59:38;5.20;;;3.90;;
75691;SDS011;64307;52.508;6.090;2022-10-15T16:02:04;6.47;;;4.40;;
75691;SDS011;64307;52.508;6.090;2022-10-15T16:04:30;5.60;;;3.70;;
75691;SDS011;64307;52.508;6.090;2022-10-15T16:06:55;6.88;;;3.92;;
75691;SDS011;64307;52.508;6.090;2022-10-15T16:09:21;8.75;;;3.78;;
75691;SDS011;64307;52.508;6.090;2022-10-15T16:11:47;4.53;;;3.47;;
75691;SDS011;64307;52.508;6.090;2022-10-15T16:14:14;5.53;;;3.15;;
75691;SDS011;64307;52.508;6.090;2022-10-15T16:16:39;4.47;;;3.35;;
75691;SDS011;64307;52.508;6.090;2022-10-15T16:19:05;5.00;;;3.33;;
75691;SDS011;64307;52.508;6.090;2022-10-15T16:21:30;5.80;;;3.25;;
75691;SDS011;64307;52.508;6.090;2022-10-15T16:23:56;6.15;;;3.38;;
75691;SDS011;64307;52.508;6.090;2022-10-15T16:26:23;5.20;;;4.18;;
75691;SDS011;64307;52.508;6.090;2022-10-15T16:28:48;4.70;;;2.97;;
75691;SDS011;64307;52.508;6.090;2022-10-15T16:33:46;6.30;;;4.22;;
75691;SDS011;64307;52.508;6.090;2022-10-15T16:36:12;5.20;;;3.75;;
75691;SDS011;64307;52.508;6.090;2022-10-15T16:38:39;5.90;;;3.47;;
75691;SDS011;64307;52.508;6.090;2022-10-15T16:41:06;5.00;;;3.38;;
75691;SDS011;64307;52.508;6.090;2022-10-15T16:43:33;5.50;;;3.42;;
75691;SDS011;64307;52.508;6.090;2022-10-15T16:45:59;4.38;;;2.88;;
75691;SDS011;64307;52.508;6.090;2022-10-15T16:48:25;5.53;;;3.08;;
75691;SDS011;64307;52.508;6.090;2022-10-15T16:51:24;6.00;;;3.60;;
75691;SDS011;64307;52.508;6.090;2022-10-15T16:53:43;6.00;;;2.85;;
75691;SDS011;64307;52.508;6.090;2022-10-15T16:56:14;6.05;;;2.65;;
75691;SDS011;64307;52.508;6.090;2022-10-15T17:01:08;6.18;;;1.60;;
75691;SDS011;64307;52.508;6.090;2022-10-15T17:03:36;4.13;;;2.22;;
75691;SDS011;64307;52.508;6.090;2022-10-15T17:06:04;5.45;;;2.28;;
75691;SDS011;64307;52.508;6.090;2022-10-15T17:08:34;5.10;;;2.65;;
75691;SDS011;64307;52.508;6.090;2022-10-15T17:11:12;7.13;;;1.70;;
75691;SDS011;64307;52.508;6.090;2022-10-15T17:14:00;5.13;;;1.48;;
75691;SDS011;64307;52.508;6.090;2022-10-15T17:16:33;5.22;;;1.70;;
75691;SDS011;64307;52.508;6.090;2022-10-15T17:19:03;6.07;;;2.72;;
75691;SDS011;64307;52.508;6.090;2022-10-15T17:21:29;3.90;;;1.52;;
75691;SDS011;64307;52.508;6.090;2022-10-15T17:23:56;5.85;;;2.35;;
75691;SDS011;64307;52.508;6.090;2022-10-15T17:26:27;3.70;;;1.98;;
75691;SDS011;64307;52.508;6.090;2022-10-15T17:29:00;7.35;;;1.83;;
75691;SDS011;64307;52.508;6.090;2022-10-15T17:31:27;6.65;;;3.15;;
75691;SDS011;64307;52.508;6.090;2022-10-15T17:33:53;13.90;;;8.48;;
75691;SDS011;64307;52.508;6.090;2022-10-15T17:38:50;5.72;;;2.50;;
75691;SDS011;64307;52.508;6.090;2022-10-15T17:41:17;7.88;;;4.05;;
75691;SDS011;64307;52.508;6.090;2022-10-15T17:43:45;7.53;;;2.83;;
75691;SDS011;64307;52.508;6.090;2022-10-15T17:46:12;4.82;;;2.45;;
75691;SDS011;64307;52.508;6.090;2022-10-15T17:48:39;6.60;;;2.10;;
75691;SDS011;64307;52.508;6.090;2022-10-15T17:51:05;6.05;;;2.95;;
75691;SDS011;64307;52.508;6.090;2022-10-15T17:53:32;4.65;;;2.53;;
75691;SDS011;64307;52.508;6.090;2022-10-15T17:55:57;3.38;;;1.63;;
75691;SDS011;64307;52.508;6.090;2022-10-15T17:58:23;3.58;;;2.00;;
75691;SDS011;64307;52.508;6.090;2022-10-15T18:00:55;4.78;;;1.60;;
75691;SDS011;64307;52.508;6.090;2022-10-15T18:03:22;8.45;;;2.60;;
75691;SDS011;64307;52.508;6.090;2022-10-15T18:05:48;6.28;;;4.78;;
75691;SDS011;64307;52.508;6.090;2022-10-15T18:08:14;5.32;;;3.42;;
75691;SDS011;64307;52.508;6.090;2022-10-15T18:10:40;5.20;;;2.60;;
75691;SDS011;64307;52.508;6.090;2022-10-15T18:13:10;5.40;;;2.47;;
75691;SDS011;64307;52.508;6.090;2022-10-15T18:15:47;6.28;;;2.75;;
75691;SDS011;64307;52.508;6.090;2022-10-15T18:18:13;5.68;;;2.35;;
75691;SDS011;64307;52.508;6.090;2022-10-15T18:20:41;4.63;;;1.30;;
75691;SDS011;64307;52.508;6.090;2022-10-15T18:23:08;4.97;;;2.00;;
75691;SDS011;64307;52.508;6.090;2022-10-15T18:25:33;5.03;;;2.58;;
75691;SDS011;64307;52.508;6.090;2022-10-15T18:27:59;7.90;;;2.63;;
75691;SDS011;64307;52.508;6.090;2022-10-15T18:30:24;9.50;;;3.07;;
75691;SDS011;64307;52.508;6.090;2022-10-15T18:32:50;8.10;;;3.65;;
75691;SDS011;64307;52.508;6.090;2022-10-15T18:35:15;12.15;;;6.38;;